Time;durP1;ratioP1;P1;durP2;ratioP2;P2;SDS_P1;SDS_P2;PMS_P1;PMS_P2;Temp;Humidity;BMP_temperature;BMP_pressure;BME280_temperature;BME280_humidity;BME280_pressure;Samples;Min_cycle;Max_cycle;Signal;HPM_P1;HPM_P2
2022/03/23 00:00:18;;;;;;;27.33;15.48;;;8.90;70.60;;;6.68;63.23;101954.00;5011806;28;20121;-72
2022/03/23 00:02:45;;;;;;;28.27;15.35;;;8.80;70.50;;;6.72;63.50;101955.47;5030220;28;20045;-72
2022/03/23 00:05:13;;;;;;;24.35;15.48;;;8.80;70.90;;;6.70;63.94;101957.44;5023318;28;20045;-72
2022/03/23 00:07:41;;;;;;;26.52;15.35;;;8.80;71.10;;;6.69;64.48;101955.75;5014696;28;20034;-72
2022/03/23 00:10:10;;;;;;;28.48;16.27;;;8.80;71.60;;;6.72;63.63;101956.34;5011394;28;20323;-72
2022/03/23 00:12:38;;;;;;;29.95;15.75;;;8.70;71.80;;;6.70;63.80;101958.34;5028900;28;20042;-72
2022/03/23 00:15:06;;;;;;;32.33;16.17;;;8.80;71.50;;;6.72;64.09;101955.47;5031650;28;20076;-72
2022/03/23 00:17:34;;;;;;;25.08;15.20;;;8.70;71.60;;;6.64;63.76;101956.97;5014610;28;20049;-72
2022/03/23 00:20:04;;;;;;;35.45;15.57;;;8.90;72.10;;;6.65;64.18;101960.53;5029996;28;20073;-72
2022/03/23 00:22:31;;;;;;;29.15;15.13;;;8.70;72.00;;;6.60;63.90;101958.19;5018595;28;20069;-72
2022/03/23 00:25:00;;;;;;;28.98;15.23;;;8.60;71.90;;;6.49;64.32;101955.47;5011701;28;20419;-72
2022/03/23 00:27:27;;;;;;;26.90;15.05;;;8.60;71.80;;;6.44;64.36;101958.56;5017512;28;20586;-72
2022/03/23 00:29:54;;;;;;;25.15;14.80;;;8.60;71.90;;;6.37;64.43;101959.16;5011139;28;20101;-72
2022/03/23 00:32:21;;;;;;;27.10;15.35;;;8.60;71.70;;;6.33;65.40;101955.00;5024344;28;20128;-72
2022/03/23 00:34:49;;;;;;;27.52;15.00;;;8.50;71.70;;;6.29;65.51;101959.78;5028987;28;20041;-72
2022/03/23 00:37:16;;;;;;;30.40;15.90;;;8.50;72.20;;;6.23;65.46;101961.13;5022668;28;20553;-72
2022/03/23 00:39:43;;;;;;;26.77;15.70;;;8.50;72.20;;;6.23;65.73;101957.56;5012323;28;20129;-72
2022/03/23 00:42:12;;;;;;;31.63;15.13;;;8.40;72.30;;;6.22;65.89;101955.81;5012918;28;20500;-73
2022/03/23 00:44:40;;;;;;;27.40;14.98;;;8.40;72.50;;;6.20;66.03;101960.50;5030089;28;20135;-72
2022/03/23 00:47:07;;;;;;;26.67;15.20;;;8.40;72.70;;;6.17;66.34;101958.03;5010378;28;20057;-73
2022/03/23 00:49:35;;;;;;;27.23;15.32;;;8.30;72.90;;;6.13;66.95;101953.84;5022129;28;20141;-73
2022/03/23 00:52:05;;;;;;;28.23;15.05;;;8.30;72.90;;;6.08;67.31;101956.91;5011775;28;20132;-73
2022/03/23 00:54:34;;;;;;;28.77;15.05;;;8.30;73.40;;;6.11;66.93;101948.59;5027451;28;20048;-73
2022/03/23 00:57:01;;;;;;;28.58;15.27;;;8.30;73.40;;;6.09;66.95;101953.22;5023620;28;20045;-73
2022/03/23 00:59:30;;;;;;;28.02;14.73;;;8.30;73.90;;;6.05;67.36;101946.34;4993510;28;20046;-73
2022/03/23 01:01:57;;;;;;;27.20;15.93;;;8.20;73.40;;;6.06;67.17;101948.06;5020945;28;20062;-73
2022/03/23 01:04:25;;;;;;;27.95;15.35;;;8.30;73.70;;;6.01;67.52;101947.56;5030433;28;20200;-73
2022/03/23 01:06:53;;;;;;;27.02;15.63;;;8.20;74.20;;;5.97;67.77;101951.47;5030735;28;20049;-73
2022/03/23 01:09:22;;;;;;;25.50;14.45;;;8.20;74.10;;;5.98;67.75;101950.53;5009167;28;20050;-73
2022/03/23 01:11:50;;;;;;;33.10;15.18;;;8.10;74.30;;;5.95;67.90;101948.91;5020083;28;20069;-73
2022/03/23 01:14:18;;;;;;;27.25;15.75;;;8.10;74.40;;;5.92;67.83;101957.22;5018627;28;20050;-73
2022/03/23 01:16:47;;;;;;;25.77;15.00;;;8.10;74.80;;;5.91;68.31;101954.63;5018386;28;20176;-72
2022/03/23 01:19:14;;;;;;;28.23;15.20;;;8.00;74.40;;;5.85;69.08;101951.41;5027523;28;20458;-73
2022/03/23 01:21:41;;;;;;;24.52;15.05;;;8.10;74.50;;;5.78;68.83;101952.88;5010372;28;20120;-73
2022/03/23 01:24:09;;;;;;;25.55;15.35;;;8.00;74.90;;;5.76;69.18;101954.81;5009407;28;20042;-73
2022/03/23 01:26:37;;;;;;;29.10;15.52;;;8.00;74.80;;;5.67;69.62;101947.41;5012465;28;20084;-72
2022/03/23 01:29:05;;;;;;;30.98;15.48;;;8.00;75.10;;;5.66;69.87;101943.00;5024448;28;20119;-73
2022/03/23 01:31:32;;;;;;;25.88;15.00;;;7.90;75.40;;;5.65;69.57;101950.25;5003626;28;20073;-73
2022/03/23 01:34:02;;;;;;;25.58;15.05;;;7.90;75.10;;;5.63;69.66;101945.94;5028628;28;20057;-73
2022/03/23 01:36:31;;;;;;;27.48;14.43;;;7.80;75.40;;;5.66;69.77;101951.13;5027363;28;20049;-72
2022/03/23 01:38:59;;;;;;;29.63;15.52;;;7.80;75.70;;;5.61;70.05;101942.50;5010405;28;20037;-73
2022/03/23 01:41:27;;;;;;;25.02;14.73;;;7.80;75.70;;;5.59;69.91;101942.59;5010235;28;20045;-72
2022/03/23 01:43:54;;;;;;;24.77;14.85;;;7.80;75.60;;;5.54;70.44;101943.94;5013696;28;20040;-73
2022/03/23 01:46:22;;;;;;;27.50;14.88;;;7.80;75.90;;;5.45;70.75;101935.56;5001767;28;20546;-73
2022/03/23 01:48:50;;;;;;;28.42;16.05;;;7.70;76.20;;;5.42;70.80;101948.44;5011652;28;20474;-72
2022/03/23 01:51:18;;;;;;;24.92;15.02;;;7.70;76.10;;;5.43;70.83;101940.22;5014506;28;20038;-73
2022/03/23 01:53:45;;;;;;;24.55;14.70;;;7.70;76.10;;;5.34;71.24;101935.50;5009951;28;20070;-72
2022/03/23 01:56:15;;;;;;;23.90;14.38;;;7.60;76.50;;;5.31;71.35;101941.13;5006238;28;20052;-72
2022/03/23 01:58:43;;;;;;;28.25;14.95;;;7.60;76.40;;;5.30;71.94;101939.41;5012016;28;20053;-73
2022/03/23 02:01:12;;;;;;;27.70;15.70;;;7.60;76.70;;;5.29;71.86;101940.38;5011113;28;20041;-72
2022/03/23 02:03:41;;;;;;;28.27;14.75;;;7.50;76.80;;;5.29;72.25;101934.97;5011871;28;20054;-72
2022/03/23 02:06:09;;;;;;;22.98;14.40;;;7.50;77.10;;;5.27;72.21;101937.81;5008228;28;20456;-72
2022/03/23 02:08:41;;;;;;;28.45;15.32;;;7.50;76.60;;;5.21;72.20;101937.41;5008647;28;20528;-72
2022/03/23 02:11:11;;;;;;;24.55;14.23;;;7.70;77.00;;;5.09;73.36;101937.34;5003303;28;20106;-73
2022/03/23 02:13:42;;;;;;;27.48;15.65;;;7.50;77.10;;;5.04;72.79;101931.41;5011738;28;20107;-72
2022/03/23 02:16:10;;;;;;;27.63;15.32;;;7.40;77.00;;;5.02;73.49;101930.66;5016801;28;20048;-73
2022/03/23 02:18:37;;;;;;;23.13;13.70;;;7.40;77.40;;;5.00;73.55;101932.63;4991743;28;20041;-73
2022/03/23 02:21:04;;;;;;;29.50;15.95;;;7.40;77.50;;;5.03;73.36;101936.94;5001505;28;20111;-73
2022/03/23 02:23:36;;;;;;;23.88;14.25;;;7.30;77.40;;;5.01;73.55;101939.75;5010098;28;20464;-73
2022/03/23 02:26:04;;;;;;;27.58;14.70;;;7.30;77.90;;;5.04;73.07;101939.50;5017404;28;20056;-73
2022/03/23 02:28:32;;;;;;;25.63;14.38;;;7.30;77.90;;;5.00;73.81;101943.41;5015557;28;20050;-73
2022/03/23 02:31:01;;;;;;;25.30;14.77;;;7.30;78.00;;;4.93;74.65;101944.88;5028829;28;20080;-73
2022/03/23 02:33:28;;;;;;;28.33;15.52;;;7.30;78.20;;;4.92;74.60;101945.81;5017366;28;20349;-72
2022/03/23 02:35:55;;;;;;;25.10;14.85;;;7.20;78.30;;;4.89;74.74;101941.53;5010394;28;20500;-72
2022/03/23 02:38:23;;;;;;;22.65;14.32;;;7.20;78.60;;;4.86;75.29;101932.78;5019157;28;20048;-73
2022/03/23 02:40:51;;;;;;;26.58;14.77;;;7.20;78.60;;;4.84;75.04;101937.44;5023208;28;20038;-73
2022/03/23 02:43:18;;;;;;;24.63;15.00;;;7.20;78.50;;;4.80;75.48;101930.56;5016307;28;20057;-73
2022/03/23 02:45:46;;;;;;;28.17;15.07;;;7.10;78.40;;;4.75;75.83;101925.47;5009176;28;20125;-72
2022/03/23 02:48:13;;;;;;;25.25;15.52;;;7.20;79.00;;;4.74;75.95;101920.19;5016150;28;20041;-73
2022/03/23 02:50:40;;;;;;;26.52;15.45;;;7.10;78.90;;;4.73;75.49;101923.88;5008807;28;20553;-73
2022/03/23 03:01:54;;;;;;;28.08;15.25;;;7.00;79.40;;;4.69;75.57;101928.63;5008738;28;20049;-73
2022/03/23 03:04:23;;;;;;;29.33;15.40;;;7.00;79.20;;;4.66;75.62;101923.44;5009414;28;20077;-73
2022/03/23 03:06:51;;;;;;;30.80;15.57;;;7.00;79.70;;;4.64;76.00;101926.25;5009014;28;20133;-73
2022/03/23 03:09:19;;;;;;;27.02;14.88;;;6.90;79.50;;;4.64;75.83;101926.25;5023062;28;20054;-72
2022/03/23 03:11:48;;;;;;;23.30;14.52;;;6.90;79.60;;;4.59;76.38;101931.13;5028526;28;20076;-72
2022/03/23 03:14:16;;;;;;;24.45;14.93;;;6.90;79.90;;;4.55;76.49;101939.53;5014987;28;20108;-73
2022/03/23 03:16:43;;;;;;;31.30;15.00;;;6.90;79.90;;;4.50;76.52;101940.72;5008978;28;20694;-72
2022/03/23 03:19:12;;;;;;;26.58;14.90;;;6.90;79.90;;;4.44;76.42;101934.94;5011877;28;20061;-73
2022/03/23 03:21:40;;;;;;;23.02;14.30;;;6.80;79.80;;;4.39;76.51;101937.09;5031008;28;20042;-72
2022/03/23 03:24:08;;;;;;;27.48;14.88;;;6.80;79.70;;;4.36;77.23;101937.28;5013303;28;20046;-72
2022/03/23 03:26:35;;;;;;;22.88;14.18;;;6.80;79.90;;;4.39;76.98;101937.94;5006007;28;20045;-73
2022/03/23 03:29:05;;;;;;;26.48;14.68;;;6.80;80.20;;;4.40;76.98;101939.69;5032094;28;20080;-73
2022/03/23 03:35:32;;;;;;;24.73;14.75;;;6.70;80.40;;;4.29;77.99;101943.13;5022071;28;20037;-72
2022/03/23 03:37:59;;;;;;;28.00;15.27;;;6.70;80.80;;;4.22;78.04;101939.13;5032046;28;20123;-73
2022/03/23 03:40:27;;;;;;;27.77;14.73;;;6.60;80.30;;;4.21;78.13;101940.13;5031885;28;20052;-73
2022/03/23 03:42:54;;;;;;;29.90;14.43;;;6.60;80.60;;;4.19;77.67;101941.16;5012649;28;20128;-73
2022/03/23 03:45:23;;;;;;;25.90;14.63;;;6.60;80.80;;;4.11;78.20;101939.03;5012416;28;20052;-72
2022/03/23 03:47:50;;;;;;;23.65;14.38;;;6.60;80.80;;;4.11;78.43;101939.03;5030165;28;20125;-72
2022/03/23 03:50:17;;;;;;;25.20;14.52;;;6.60;81.00;;;4.16;78.34;101942.25;5030317;28;20067;-73
2022/03/23 03:52:45;;;;;;;22.25;13.85;;;6.60;80.80;;;4.18;78.69;101940.31;5012344;28;20420;-73
2022/03/23 03:55:12;;;;;;;27.20;14.73;;;6.50;80.90;;;4.16;78.43;101936.03;5011933;28;20041;-72
2022/03/23 03:57:39;;;;;;;26.48;15.27;;;6.50;81.10;;;4.15;78.80;101942.38;5027469;28;20064;-73
2022/03/23 04:00:08;;;;;;;27.90;14.90;;;6.50;81.30;;;4.15;78.53;101945.94;5031453;28;20052;-73
2022/03/23 04:02:43;;;;;;;23.30;14.52;;;6.50;81.90;;;4.20;78.70;101942.91;5015985;28;20140;-72
2022/03/23 04:05:11;;;;;;;30.17;15.48;;;6.40;81.90;;;4.22;78.78;101941.81;5031586;28;20440;-72
2022/03/23 04:07:38;;;;;;;28.30;14.68;;;6.50;81.70;;;4.21;78.48;101950.91;5017123;28;20065;-73
2022/03/23 04:10:07;;;;;;;23.45;14.45;;;6.50;81.80;;;4.15;78.81;101945.06;5031273;28;20128;-72
2022/03/23 04:12:34;;;;;;;24.98;14.70;;;6.50;81.70;;;4.15;78.37;101943.25;5017069;28;20092;-73
2022/03/23 04:15:02;;;;;;;25.27;14.15;;;6.50;81.50;;;4.05;79.13;101940.31;5011861;28;20045;-73
2022/03/23 04:17:29;;;;;;;30.48;14.25;;;6.50;81.40;;;4.01;79.05;101946.03;5025023;28;20049;-72
2022/03/23 04:19:58;;;;;;;27.23;15.65;;;6.50;81.40;;;3.98;79.49;101946.22;5031026;28;20431;-73
2022/03/23 04:22:26;;;;;;;31.00;15.52;;;6.40;81.50;;;3.91;79.25;101952.06;5018600;28;20038;-73
2022/03/23 04:24:53;;;;;;;24.58;15.02;;;6.40;81.50;;;3.89;79.13;101955.81;5011717;28;20046;-73
2022/03/23 04:27:23;;;;;;;25.83;14.80;;;6.40;81.50;;;3.87;79.82;101955.94;5023779;28;20128;-72
2022/03/23 04:29:50;;;;;;;23.48;14.13;;;6.30;81.80;;;3.88;79.67;101952.28;5025047;28;20116;-73
2022/03/23 04:32:17;;;;;;;26.95;14.43;;;6.30;81.90;;;3.81;79.66;101961.75;5010546;28;20049;-72
2022/03/23 04:34:45;;;;;;;25.60;14.82;;;6.30;81.80;;;3.83;79.35;101962.50;5022884;28;20641;-73
2022/03/23 04:37:13;;;;;;;27.77;15.43;;;6.20;81.60;;;3.84;79.92;101964.22;5020110;28;20053;-72
2022/03/23 04:39:41;;;;;;;26.88;14.88;;;6.20;81.70;;;3.83;79.71;101959.81;5011026;28;20059;-73
2022/03/23 04:42:08;;;;;;;26.00;14.60;;;6.20;81.70;;;3.78;80.43;101964.63;5020352;28;20041;-72
2022/03/23 04:44:36;;;;;;;27.77;15.27;;;6.20;82.00;;;3.79;79.45;101969.06;5030841;28;20048;-73
2022/03/23 04:47:03;;;;;;;26.10;13.70;;;6.20;82.20;;;3.77;80.40;101968.31;5020415;28;20050;-73
2022/03/23 04:49:31;;;;;;;23.15;14.23;;;6.20;82.40;;;3.64;81.12;101967.41;5019386;28;20125;-73
2022/03/23 04:51:58;;;;;;;23.92;15.00;;;6.10;82.80;;;3.66;80.91;101965.47;5016134;28;20432;-73
2022/03/23 04:54:26;;;;;;;26.75;15.38;;;6.10;83.10;;;3.65;81.67;101971.81;5011407;28;20085;-72
2022/03/23 04:56:54;;;;;;;23.70;14.85;;;6.00;82.90;;;3.62;81.25;101970.22;5018718;28;20045;-72
2022/03/23 04:59:21;;;;;;;23.52;13.85;;;6.00;82.90;;;3.64;81.59;101973.66;5030942;28;20077;-73
2022/03/23 05:01:52;;;;;;;31.13;15.18;;;6.00;83.10;;;3.64;81.29;101976.34;5022653;28;20469;-72
2022/03/23 05:04:19;;;;;;;27.20;14.85;;;6.00;83.40;;;3.61;81.67;101973.00;5011077;28;20511;-72
2022/03/23 05:06:47;;;;;;;26.63;14.85;;;6.10;83.40;;;3.57;81.51;101975.03;5016140;28;20040;-72
2022/03/23 05:09:15;;;;;;;32.85;14.05;;;6.00;83.60;;;3.57;81.89;101976.88;5028657;28;20068;-73
2022/03/23 05:11:43;;;;;;;27.27;14.38;;;6.00;83.60;;;3.55;81.42;101982.34;5024447;28;20030;-72
2022/03/23 05:14:10;;;;;;;23.70;14.40;;;5.90;83.60;;;3.52;82.04;101986.13;5010537;28;20117;-73
2022/03/23 05:16:38;;;;;;;24.90;14.23;;;5.90;83.50;;;3.51;82.06;101986.22;5015375;28;20551;-73
2022/03/23 05:19:05;;;;;;;27.75;14.65;;;5.90;83.60;;;3.56;81.40;101991.28;5030169;28;20045;-73
2022/03/23 05:21:33;;;;;;;27.13;15.07;;;5.90;83.70;;;3.58;81.05;101983.97;5029502;28;20029;-72
2022/03/23 05:24:00;;;;;;;24.67;14.57;;;5.90;83.80;;;3.57;81.20;101990.31;5023461;28;20217;-72
2022/03/23 05:26:27;;;;;;;28.75;15.35;;;5.90;83.60;;;3.63;80.76;101987.22;5024927;28;20040;-73
2022/03/23 05:28:56;;;;;;;27.10;14.00;;;5.90;83.60;;;3.60;81.26;101987.41;5018502;28;20037;-73
2022/03/23 05:31:23;;;;;;;26.10;14.50;;;5.90;83.80;;;3.59;81.34;101991.09;5027057;28;20044;-73
2022/03/23 05:33:50;;;;;;;26.25;13.88;;;5.90;83.70;;;3.56;81.30;101986.78;5029718;28;20519;-75
2022/03/23 05:36:18;;;;;;;29.65;15.23;;;5.90;83.90;;;3.53;82.08;101995.03;5028713;28;20045;-74
2022/03/23 05:38:45;;;;;;;26.67;14.57;;;5.90;84.00;;;3.54;82.28;102002.13;5026152;28;20084;-75
2022/03/23 05:41:13;;;;;;;25.52;14.55;;;5.90;84.10;;;3.53;81.89;101995.91;5014842;28;20510;-75
2022/03/23 05:43:40;;;;;;;25.45;14.70;;;5.90;84.20;;;3.52;82.25;102002.25;5016317;28;20045;-75
2022/03/23 05:46:08;;;;;;;26.45;14.25;;;5.90;84.20;;;3.57;82.86;102003.78;5020481;28;20080;-75
2022/03/23 05:48:36;;;;;;;26.50;14.68;;;5.90;84.30;;;3.62;81.88;101998.97;5013919;28;20041;-75
2022/03/23 05:51:03;;;;;;;26.63;15.10;;;5.90;84.30;;;3.57;82.18;102001.09;5028714;28;20038;-75
2022/03/23 05:53:45;;;;;;;24.35;13.38;;;5.90;84.60;;;3.55;82.54;102000.34;5027852;28;20050;-75
2022/03/23 05:56:12;;;;;;;26.30;14.32;;;5.90;84.60;;;3.55;83.11;102005.72;5021396;28;20038;-75
2022/03/23 05:58:39;;;;;;;24.48;14.45;;;5.90;84.70;;;3.56;82.71;102012.81;5009994;28;20107;-75
2022/03/23 06:01:08;;;;;;;24.63;15.00;;;5.90;84.90;;;3.58;83.56;101998.31;5010789;28;20473;-74
2022/03/23 06:03:36;;;;;;;29.15;15.25;;;5.80;85.40;;;3.63;83.13;102006.06;5026430;28;20624;-74
2022/03/23 06:06:04;;;;;;;22.83;13.88;;;5.80;85.50;;;3.69;83.07;102009.22;5025440;28;20096;-74
2022/03/23 06:08:31;;;;;;;24.67;14.88;;;5.80;85.30;;;3.73;83.49;102015.22;5029364;28;20045;-75
2022/03/23 06:10:59;;;;;;;27.98;15.60;;;5.90;85.30;;;3.75;83.40;102007.94;5016558;28;20046;-74
2022/03/23 06:13:26;;;;;;;28.20;15.23;;;5.90;85.50;;;3.79;83.60;102009.47;5017132;28;20042;-75
2022/03/23 06:15:53;;;;;;;25.08;14.70;;;5.90;85.40;;;3.80;83.02;102016.56;5022279;28;20034;-75
2022/03/23 06:18:22;;;;;;;27.80;15.93;;;5.90;85.70;;;3.84;83.09;102007.28;5007675;28;20053;-75
2022/03/23 06:20:49;;;;;;;25.85;14.75;;;6.00;85.80;;;3.96;82.81;102010.13;5018209;28;20525;-75
2022/03/23 06:23:16;;;;;;;27.75;14.93;;;6.00;86.00;;;4.03;83.27;102017.69;5026153;28;20053;-75
2022/03/23 06:25:44;;;;;;;24.38;14.70;;;6.10;86.10;;;4.12;82.43;102016.19;5029923;28;20045;-75
2022/03/23 06:28:11;;;;;;;26.25;15.40;;;6.10;86.30;;;4.20;82.64;102008.44;5022412;28;20052;-75
2022/03/23 06:30:38;;;;;;;24.40;15.15;;;6.20;86.40;;;4.27;82.45;102015.13;5021034;28;20049;-75
2022/03/23 06:33:06;;;;;;;27.63;15.82;;;6.20;86.60;;;4.37;82.28;102015.34;5010432;28;20129;-75
2022/03/23 06:35:36;;;;;;;27.52;15.30;;;6.20;86.20;;;4.49;81.71;102016.31;5045860;28;20069;-74
2022/03/23 06:38:04;;;;;;;28.25;16.23;;;6.30;86.50;;;4.60;81.06;102027.22;5019966;28;20104;-75
2022/03/23 06:40:31;;;;;;;28.77;15.40;;;6.40;86.60;;;4.75;80.81;102021.72;5023908;28;20057;-75
2022/03/23 06:42:58;;;;;;;24.30;15.15;;;6.50;86.70;;;4.88;80.68;102022.56;5026854;28;20554;-75
2022/03/23 06:45:25;;;;;;;23.85;14.18;;;6.60;86.90;;;4.94;80.96;102030.19;5045690;28;20451;-75
2022/03/23 06:47:53;;;;;;;28.40;15.02;;;6.60;86.50;;;5.05;80.94;102033.00;5031904;28;20038;-75
2022/03/23 06:50:20;;;;;;;29.50;15.30;;;6.70;86.40;;;5.16;81.16;102028.63;5018394;28;20566;-75
2022/03/23 06:52:49;;;;;;;27.65;15.52;;;6.80;86.60;;;5.27;80.32;102031.41;5021372;28;20042;-75
2022/03/23 06:55:16;;;;;;;26.55;15.70;;;7.00;86.60;;;5.38;79.35;102023.38;5025024;28;20072;-75
2022/03/23 06:57:43;;;;;;;28.20;15.95;;;7.00;86.30;;;5.51;79.00;102023.34;5023314;28;20037;-75
2022/03/23 07:00:13;;;;;;;26.98;15.85;;;7.10;86.30;;;5.59;79.01;102025.47;5030853;28;20049;-75
2022/03/23 07:02:41;;;;;;;29.60;16.63;;;7.20;85.90;;;5.72;78.89;102033.53;5013885;28;20431;-75
2022/03/23 07:05:09;;;;;;;27.50;16.50;;;7.30;86.10;;;5.81;79.23;102033.69;5046070;28;20121;-75
2022/03/23 07:07:37;;;;;;;29.15;16.00;;;7.30;85.90;;;5.86;78.41;102022.50;5022130;28;20087;-75
2022/03/23 07:10:06;;;;;;;29.33;16.30;;;7.40;85.30;;;5.97;77.99;102025.28;5027931;28;20056;-75
2022/03/23 07:12:33;;;;;;;29.40;17.42;;;7.50;85.50;;;6.09;77.78;102023.50;5015662;28;20076;-75
2022/03/23 07:15:00;;;;;;;29.63;16.80;;;7.60;85.30;;;6.21;77.44;102017.16;5050734;28;20044;-75
2022/03/23 07:17:28;;;;;;;29.25;16.40;;;7.70;85.40;;;6.34;78.14;102022.47;5021600;28;20496;-75
2022/03/23 07:19:55;;;;;;;26.90;16.10;;;7.80;85.60;;;6.46;78.12;102028.75;5017172;28;20073;-74
2022/03/23 07:22:23;;;;;;;33.67;16.92;;;8.00;85.60;;;6.58;77.67;102019.66;5030262;28;20132;-75
2022/03/23 07:24:51;;;;;;;36.17;16.98;;;8.10;85.30;;;6.72;77.50;102021.28;5024585;28;20067;-74
2022/03/23 07:27:20;;;;;;;30.60;16.83;;;8.20;85.00;;;6.84;77.34;102024.84;5004787;28;20112;-75
2022/03/23 07:29:48;;;;;;;35.80;17.15;;;8.30;84.40;;;6.98;77.10;102021.03;5027440;28;20045;-73
2022/03/23 07:32:15;;;;;;;39.38;18.25;;;8.40;83.60;;;7.10;76.31;102022.75;5027921;28;20042;-74
2022/03/23 07:34:43;;;;;;;38.10;18.13;;;8.50;83.40;;;7.22;76.30;102019.03;5039939;28;20116;-74
2022/03/23 07:37:10;;;;;;;43.90;17.50;;;8.60;83.60;;;7.34;75.54;102022.56;5029334;28;20045;-74
2022/03/23 07:39:37;;;;;;;35.35;17.23;;;8.70;83.40;;;7.43;75.18;102019.09;5031878;28;20128;-74
2022/03/23 07:42:05;;;;;;;31.17;17.25;;;8.80;82.80;;;7.55;75.26;102024.50;5031540;28;20128;-74
2022/03/23 07:44:34;;;;;;;30.50;17.42;;;8.90;82.40;;;7.68;75.55;102014.34;5038542;28;20521;-73
2022/03/23 07:47:01;;;;;;;32.63;17.00;;;9.00;82.50;;;7.79;74.70;102025.16;5030325;28;20095;-74
2022/03/23 07:49:28;;;;;;;35.33;17.55;;;9.10;81.80;;;7.92;74.37;102025.00;5026304;28;20042;-74
2022/03/23 07:51:57;;;;;;;29.38;16.88;;;9.20;81.70;;;8.06;73.57;102022.97;5011864;28;20558;-74
2022/03/23 07:54:25;;;;;;;33.47;17.40;;;9.40;81.50;;;8.22;74.45;102029.66;5027562;28;20129;-74
2022/03/23 07:56:52;;;;;;;30.60;17.13;;;9.50;81.60;;;8.37;72.99;102032.00;5012029;28;20069;-74
2022/03/23 07:59:19;;;;;;;29.13;16.75;;;9.60;80.90;;;8.51;72.82;102029.00;4996135;28;20153;-74
2022/03/23 08:01:48;;;;;;;42.05;18.27;;;9.80;80.70;;;8.69;72.60;102031.94;5031587;28;20515;-74
2022/03/23 08:04:15;;;;;;;28.33;16.67;;;9.90;81.00;;;8.82;71.58;102026.31;5039232;28;20044;-74
2022/03/23 08:06:42;;;;;;;28.40;16.73;;;10.00;80.40;;;8.93;70.86;102034.34;5011176;28;20520;-74
2022/03/23 08:09:10;;;;;;;29.35;17.33;;;10.10;79.50;;;9.04;69.60;102035.25;5011878;28;20076;-74
2022/03/23 08:11:37;;;;;;;30.90;16.35;;;10.30;78.90;;;9.17;69.90;102033.16;5013303;28;20056;-74
2022/03/23 08:14:04;;;;;;;28.20;17.67;;;10.40;78.50;;;9.32;68.86;102034.47;5014283;28;20041;-74
2022/03/23 08:16:32;;;;;;;31.45;16.75;;;10.50;77.90;;;9.43;67.73;102029.94;5012785;28;20060;-75
2022/03/23 08:19:00;;;;;;;31.75;16.67;;;10.60;77.00;;;9.54;68.09;102027.97;5011813;28;20045;-74
2022/03/23 08:21:28;;;;;;;27.08;15.57;;;10.70;76.10;;;9.67;68.08;102035.84;5011258;28;20077;-75
2022/03/23 08:23:56;;;;;;;26.48;16.30;;;10.90;75.70;;;9.83;65.53;102037.16;5028322;28;20037;-74
2022/03/23 08:26:23;;;;;;;26.52;16.17;;;11.00;74.80;;;9.96;65.45;102029.56;5012531;28;20053;-75
2022/03/23 08:28:51;;;;;;;27.98;16.20;;;11.20;73.30;;;10.07;63.85;102028.53;5019146;28;20583;-74
2022/03/23 08:31:19;;;;;;;25.77;16.25;;;11.20;72.60;;;10.15;64.08;102032.28;5029241;28;20045;-74
2022/03/23 08:33:46;;;;;;;29.05;16.65;;;11.30;71.90;;;10.26;64.86;102027.66;5028230;28;20061;-75
2022/03/23 08:36:15;;;;;;;27.35;15.77;;;11.40;72.20;;;10.42;64.24;102027.97;5031125;28;20076;-75
2022/03/23 08:38:42;;;;;;;26.60;16.92;;;11.60;72.40;;;10.53;64.11;102029.69;5024118;28;20125;-74
2022/03/23 08:41:09;;;;;;;28.90;16.88;;;11.70;72.00;;;10.61;64.07;102032.50;5011056;28;20038;-75
2022/03/23 08:43:38;;;;;;;29.67;16.75;;;11.80;71.60;;;10.76;63.19;102019.28;5021786;28;20430;-75
2022/03/23 08:46:05;;;;;;;28.55;16.30;;;12.00;71.50;;;10.89;62.67;102022.53;5032631;28;20045;-74
2022/03/23 08:48:32;;;;;;;30.75;16.67;;;12.10;70.70;;;11.02;62.38;102024.03;4997846;28;20566;-75
2022/03/23 08:51:00;;;;;;;28.30;16.08;;;12.20;69.80;;;11.13;61.79;102032.03;5030510;28;20388;-75
2022/03/23 08:53:28;;;;;;;30.80;17.23;;;12.30;68.90;;;11.22;61.48;102016.66;5028939;28;20037;-74
2022/03/23 08:55:55;;;;;;;29.05;16.90;;;12.50;69.10;;;11.31;58.27;102029.38;5033184;28;20046;-75
2022/03/23 08:58:23;;;;;;;26.52;15.75;;;12.60;63.80;;;11.40;53.29;102028.41;5023660;28;20064;-73
2022/03/23 09:00:50;;;;;;;30.13;17.08;;;12.60;60.00;;;11.44;54.78;102029.84;5010305;28;20472;-73
2022/03/23 09:03:17;;;;;;;27.13;16.17;;;12.70;57.60;;;11.55;53.27;102031.50;5020356;28;20225;-73
2022/03/23 09:05:45;;;;;;;29.50;15.73;;;12.80;57.50;;;11.65;51.17;102031.41;5048653;28;20076;-73
2022/03/23 09:08:12;;;;;;;30.65;17.23;;;12.90;56.20;;;11.70;49.81;102027.22;5041344;28;20038;-72
2022/03/23 09:10:41;;;;;;;29.52;16.80;;;13.00;53.90;;;11.79;49.19;102022.72;5010520;28;20129;-74
2022/03/23 09:13:08;;;;;;;30.65;17.05;;;13.10;54.20;;;11.83;50.01;102024.13;5001983;28;20570;-74
2022/03/23 09:15:35;;;;;;;31.77;16.75;;;13.10;54.50;;;11.92;48.01;102022.38;5039539;28;20037;-74
2022/03/23 09:18:06;;;;;;;29.98;16.45;;;13.20;54.60;;;12.04;46.59;102015.63;5008831;28;20123;-74
2022/03/23 09:20:34;;;;;;;27.50;17.23;;;13.20;53.50;;;12.10;46.88;102017.72;5025660;28;20484;-74
2022/03/23 09:23:02;;;;;;;27.58;16.50;;;13.30;53.20;;;12.16;45.65;102020.84;5027469;28;20124;-74
2022/03/23 09:25:29;;;;;;;29.60;16.48;;;13.40;52.00;;;12.29;46.78;102024.03;5016312;28;20042;-74
2022/03/23 09:27:59;;;;;;;26.73;17.52;;;13.50;52.50;;;12.33;44.22;102019.97;5009860;28;20096;-74
2022/03/23 09:30:26;;;;;;;29.38;16.88;;;13.60;52.30;;;12.46;44.28;102017.66;5012081;28;20542;-74
2022/03/23 09:32:53;;;;;;;28.50;16.23;;;13.60;51.70;;;12.55;42.12;102015.00;5013481;28;20096;-74
2022/03/23 09:35:21;;;;;;;27.67;17.10;;;13.70;51.80;;;12.69;43.44;102017.13;5037377;28;20095;-74
2022/03/23 09:37:47;;;;;;;32.78;17.83;;;13.70;50.90;;;12.63;44.65;102018.63;5012520;28;20049;-74
2022/03/23 09:40:17;;;;;;;30.27;17.90;;;13.70;52.10;;;12.60;44.23;102018.09;5024549;28;20045;-74
2022/03/23 09:42:45;;;;;;;27.05;17.25;;;13.80;52.10;;;12.64;44.11;102019.47;5017206;28;20038;-74
2022/03/23 09:45:28;;;;;;;29.77;17.63;;;13.80;51.60;;;12.64;44.31;102014.03;5049378;28;20103;-74
2022/03/23 09:47:55;;;;;;;28.92;17.23;;;13.80;50.70;;;12.70;43.39;102018.88;5031903;28;20059;-74
2022/03/23 09:50:25;;;;;;;29.83;14.90;;;13.90;51.90;;;12.81;43.00;102014.97;5023214;28;20042;-74
2022/03/23 09:52:53;;;;;;;27.45;16.25;;;14.00;51.30;;;12.88;41.48;102008.69;5023561;28;20052;-75
2022/03/23 09:55:21;;;;;;;22.55;14.73;;;14.00;49.90;;;12.91;41.82;102008.38;5043500;28;20091;-75
2022/03/23 09:57:48;;;;;;;26.63;16.20;;;14.10;49.50;;;12.95;41.37;102003.44;5033809;28;20042;-75
2022/03/23 10:00:18;;;;;;;24.98;16.13;;;14.10;49.00;;;12.97;43.38;102004.13;5022621;28;20042;-75
2022/03/23 10:03:40;;;;;;;24.42;15.93;;;14.20;51.80;;;13.04;42.65;102007.06;5027152;28;20492;-75
2022/03/23 10:07:05;;;;;;;27.83;15.73;;;14.20;50.10;;;13.04;41.31;102013.41;5022790;28;20038;-75
2022/03/23 10:10:38;;;;;;;27.80;16.80;;;14.20;48.80;;;13.10;40.35;102006.41;5008954;28;20141;-75
2022/03/23 10:14:09;;;;;;;26.88;16.52;;;14.20;49.00;;;13.22;40.11;102009.72;5016352;28;20040;-75
2022/03/23 10:17:42;;;;;;;31.53;17.17;;;14.30;49.30;;;13.23;40.57;102006.81;4988235;28;20514;-75
2022/03/23 10:20:12;;;;;;;25.70;16.38;;;14.30;48.80;;;13.32;40.22;102001.41;5009356;28;20077;-75
2022/03/23 10:22:47;;;;;;;26.10;16.25;;;14.40;48.30;;;13.29;41.02;101997.94;5010496;28;20048;-76
2022/03/23 10:25:15;;;;;;;28.08;15.30;;;14.40;49.10;;;13.35;40.69;101993.72;5016492;28;20733;-75
2022/03/23 10:28:12;;;;;;;23.67;15.85;;;14.50;49.40;;;13.41;40.64;102003.13;5016815;28;20041;-75
2022/03/23 10:30:40;;;;;;;28.50;15.05;;;14.50;48.80;;;13.46;40.55;102003.47;5009744;28;20124;-75